Albuquerque, NM (87110)

11:26 PM MDT on May 29, 2015 (GMT -0600)
La Resolana | | Change Station
CLOSE
Current Station
Personal Weather Station
Location: Albuquerque, NM
Elevation: 5225 ft
Nearby Weather Stations

Elev 5225 ft 35.09 °N, 106.60 °W | Updated 2 seconds ago

Partly Cloudy
Partly Cloudy
63.5 °F
Feels Like 63.5 °F
N
0.0
Wind Variable Wind from NW
Gusts 0.0 mph

Today
High -- | Low -- °F
--% Chance of Precip.
Yesterday
High -- | Low -- °F
Precip. -- in
5:54 AM 8:13 PM
Waxing Gibbous, 88% visible
Pressure 29.95 in
Visibility 10.0 miles
Clouds Scattered Clouds 25000 ft
Dew Point 36 °F
Humidity 36%
Rainfall 0.00 in
Snow Depth Not available.
UV 0 out of 12
Pollen 5.10 out of 12
Air Quality Not available.
Flu Activity Sporadic
METAR KABQ 300452Z 04004KT 10SM SCT250 22/M01 A3017 RMK AO2 SLP140 T02171011

More Conditions Fewer Conditions

Pressure 29.95 in
Visibility 10.0 miles
Clouds Scattered Clouds 25000 ft
Dew Point 36 °F
Humidity 36%
Rainfall 0.00 in
Snow Depth Not available.
UV 0 out of 12
Pollen 5.10 out of 12
Air Quality Not available.
Flu Activity Sporadic
METAR KABQ 300452Z 04004KT 10SM SCT250 22/M01 A3017 RMK AO2 SLP140 T02171011

More Conditions Fewer Conditions

Nowcast | as of 11:19 PM MDT on May 29, 2015

Locally strong wind gusts can be expected to spread through the passes and canyons of the Central Mountain chain and into the Rio Grande Valley through at least 2 or 3 am MDT...if not a little longer. Gust speeds will likely reach between 30 and 45 mph.

×

10-Day Weather Forecast

Almanac

Astronomy

May. 29, 2015 Rise Set
Actual Time
Civil Twilight
Nautical Twilight
Astronomical Twilight
Moon
Length of Visible Light
Length of Day
Tomorrow will be .
, % of the Moon is Illuminated

Today's Extremes

State Highs State Lows

Community

WunderPhotos

Upload Photos

1,825,459 photos uploaded!

WunderBlogs® & News

Nearby

Air Quality

  Air Quality AQ Index Pollutant
Not available.

Snow Depth

Station Depth Elevation

Earthquake Activity

City Distance Mag. Time & Date
Minimum magnitude displayed is 2.5.

Coastal Water Temperatures

Place Temperature

Stations

Nearby Weather Stations

Station Location Temp. Windchill Dew Point Humidity Wind Precip. Elev Updated Type